Time;durP1;ratioP1;P1;durP2;ratioP2;P2;SDS_P1;SDS_P2;PMS_P1;PMS_P2;Temp;Humidity;BMP_temperature;BMP_pressure;BME280_temperature;BME280_humidity;BME280_pressure;Samples;Min_cycle;Max_cycle;Signal;HPM_P1;HPM_P2
2023/08/03 04:01:05;;;;;;;0.60;0.20;;;17.90;99.90;;;;;;5732891;22;20537;-71
2023/08/03 04:03:33;;;;;;;0.60;0.20;;;17.70;99.90;;;;;;4991237;28;20962;-71
2023/08/03 04:06:01;;;;;;;3.50;0.60;;;17.70;99.90;;;;;;4991790;28;20444;-71
2023/08/03 04:08:28;;;;;;;0.60;0.30;;;17.70;99.90;;;;;;4991440;28;20499;-70
2023/08/03 04:10:56;;;;;;;0.70;0.20;;;17.70;99.90;;;;;;4997205;28;20462;-71
2023/08/03 04:13:24;;;;;;;1.13;0.20;;;17.70;99.90;;;;;;5011428;28;20577;-71
2023/08/03 04:15:52;;;;;;;0.60;0.20;;;17.70;99.90;;;;;;5014336;28;20451;-70
2023/08/03 04:18:21;;;;;;;0.70;0.30;;;17.80;99.90;;;;;;5019444;28;20866;-71
2023/08/03 04:20:49;;;;;;;2.50;0.30;;;17.60;99.90;;;;;;5028188;28;20472;-71
2023/08/03 04:23:17;;;;;;;1.30;0.50;;;17.60;99.90;;;;;;5033237;28;20463;-71
2023/08/03 04:25:45;;;;;;;1.13;1.03;;;17.60;99.90;;;;;;5019027;28;20560;-71
2023/08/03 04:28:12;;;;;;;2.20;0.33;;;17.60;99.90;;;;;;5033652;28;20466;-71
2023/08/03 04:30:40;;;;;;;2.00;0.50;;;17.60;99.90;;;;;;5111390;22;20470;-72
2023/08/03 04:33:09;;;;;;;2.60;0.50;;;17.60;99.90;;;;;;5013970;28;20489;-73
2023/08/03 04:35:39;;;;;;;0.60;0.20;;;17.60;99.90;;;;;;5013904;28;20529;-72
2023/08/03 04:38:07;;;;;;;1.43;0.77;;;;;;;;;;5014457;28;20450;-72
2023/08/03 04:40:35;;;;;;;1.07;0.43;;;17.50;99.90;;;;;;5014468;28;20475;-72
2023/08/03 04:43:03;;;;;;;2.83;0.30;;;17.50;99.90;;;;;;5014352;28;20495;-73
2023/08/03 04:45:31;;;;;;;0.90;0.60;;;17.50;99.90;;;;;;5014025;28;20483;-72
2023/08/03 04:47:59;;;;;;;2.90;1.90;;;17.50;99.90;;;;;;5014320;28;20465;-72
2023/08/03 04:50:27;;;;;;;0.60;0.10;;;17.40;99.90;;;;;;5013268;28;20554;-73
2023/08/03 04:52:56;;;;;;;0.60;0.20;;;17.40;99.90;;;;;;5015877;28;20479;-73
2023/08/03 04:55:24;;;;;;;0.60;0.20;;;17.50;99.90;;;;;;5026969;28;20440;-72
2023/08/03 04:57:52;;;;;;;2.47;0.77;;;17.50;99.90;;;;;;5025170;28;20470;-73
2023/08/03 05:00:20;;;;;;;1.10;0.40;;;17.50;99.90;;;;;;5018924;28;20855;-74
2023/08/03 05:02:49;;;;;;;1.30;0.40;;;17.50;99.90;;;;;;5017312;28;20440;-74
2023/08/03 05:05:17;;;;;;;1.80;0.40;;;17.50;99.90;;;;;;5017867;28;20795;-74
2023/08/03 05:07:46;;;;;;;0.70;0.20;;;17.50;99.90;;;;;;5014898;28;20546;-75
2023/08/03 05:10:15;;;;;;;0.70;0.20;;;17.60;99.90;;;;;;5003951;28;20466;-73
2023/08/03 05:12:43;;;;;;;2.20;0.40;;;17.50;99.90;;;;;;5006546;28;20536;-72
2023/08/03 05:15:11;;;;;;;1.27;0.30;;;17.50;99.90;;;;;;5007225;28;20456;-73
2023/08/03 05:17:39;;;;;;;0.90;0.50;;;17.50;99.90;;;;;;5013039;28;20549;-73
2023/08/03 05:20:08;;;;;;;7.00;1.90;;;17.30;99.90;;;;;;5014139;28;20542;-74
2023/08/03 05:22:36;;;;;;;0.60;0.20;;;17.40;99.90;;;;;;5006272;28;20517;-73
2023/08/03 05:25:05;;;;;;;0.80;0.20;;;17.40;99.90;;;;;;5014055;28;20971;-74
2023/08/03 05:27:34;;;;;;;1.67;0.60;;;17.40;99.90;;;;;;5013252;28;20510;-74
2023/08/03 05:30:03;;;;;;;0.60;0.20;;;17.50;99.90;;;;;;5014122;28;20454;-73
2023/08/03 05:32:31;;;;;;;0.70;0.30;;;;;;;;;;5028964;28;20494;-73
2023/08/03 05:34:59;;;;;;;0.70;0.30;;;17.50;99.90;;;;;;5035820;28;20535;-72
2023/08/03 05:37:26;;;;;;;0.60;0.20;;;17.50;99.90;;;;;;5051530;28;21010;-73
2023/08/03 05:39:54;;;;;;;0.60;0.20;;;17.50;99.90;;;;;;5053938;28;20444;-74
2023/08/03 05:42:22;;;;;;;0.80;0.50;;;17.40;99.90;;;;;;5053838;28;20481;-73
2023/08/03 05:44:52;;;;;;;0.80;0.20;;;17.50;99.90;;;;;;5035313;28;20998;-73
2023/08/03 05:47:20;;;;;;;0.87;0.40;;;17.40;99.90;;;;;;5033738;28;21140;-74
2023/08/03 05:49:47;;;;;;;0.80;0.30;;;17.40;99.90;;;;;;5033676;28;20478;-73
2023/08/03 05:52:16;;;;;;;0.70;0.30;;;17.40;99.90;;;;;;5033705;28;20467;-75
2023/08/03 05:54:46;;;;;;;1.07;0.40;;;17.40;99.90;;;;;;5033562;28;20481;-73
2023/08/03 05:57:16;;;;;;;0.60;0.10;;;17.40;99.90;;;;;;5041817;28;20474;-72
2023/08/03 05:59:44;;;;;;;1.63;0.53;;;17.40;99.90;;;;;;5043237;28;20492;-73
2023/08/03 06:02:33;;;;;;;0.90;0.40;;;17.40;99.90;;;;;;5041775;28;20889;-73
2023/08/03 06:05:01;;;;;;;1.27;0.43;;;17.30;99.90;;;;;;5031273;28;20460;-75
2023/08/03 06:07:29;;;;;;;0.60;0.10;;;17.30;99.90;;;;;;5041979;28;20484;-76
2023/08/03 06:09:56;;;;;;;1.13;0.93;;;17.40;99.90;;;;;;5045656;28;20445;-76
2023/08/03 06:12:24;;;;;;;3.00;0.50;;;17.40;99.90;;;;;;5044398;28;20841;-76
2023/08/03 06:14:52;;;;;;;0.67;0.23;;;17.50;99.90;;;;;;5038056;28;20919;-77
2023/08/03 06:17:23;;;;;;;1.20;0.70;;;17.50;99.90;;;;;;5039589;28;21024;-76
2023/08/03 06:19:51;;;;;;;2.20;0.60;;;17.50;99.90;;;;;;5031917;28;20449;-77
2023/08/03 06:22:20;;;;;;;2.73;0.30;;;;;;;;;;5027344;28;20544;-73
2023/08/03 06:24:50;;;;;;;1.00;0.73;;;17.60;99.90;;;;;;5032534;28;20449;-74
2023/08/03 06:27:18;;;;;;;1.27;0.57;;;17.70;99.90;;;;;;5038549;28;20985;-75
2023/08/03 06:29:46;;;;;;;1.37;0.80;;;17.70;99.90;;;;;;5038262;28;20816;-74
2023/08/03 06:32:22;;;;;;;0.80;0.47;;;17.70;99.90;;;;;;5030166;28;20498;-74
2023/08/03 06:34:51;;;;;;;2.20;0.60;;;17.80;99.90;;;;;;5031955;28;20917;-74
2023/08/03 06:37:20;;;;;;;1.87;0.30;;;17.80;99.90;;;;;;5033437;28;20514;-74
2023/08/03 06:39:50;;;;;;;0.70;0.30;;;17.80;99.90;;;;;;5031572;28;20439;-73
2023/08/03 06:42:18;;;;;;;0.60;0.20;;;18.00;99.90;;;;;;5030864;28;20544;-74
2023/08/03 06:44:46;;;;;;;0.60;0.27;;;18.00;99.90;;;;;;5048737;28;20791;-75
2023/08/03 06:47:14;;;;;;;1.10;0.70;;;18.00;99.90;;;;;;5031057;28;20454;-75
2023/08/03 06:49:42;;;;;;;0.60;0.50;;;18.00;99.90;;;;;;5031256;28;21025;-74
2023/08/03 06:52:11;;;;;;;1.10;0.20;;;18.00;99.90;;;;;;5031243;28;20546;-74
2023/08/03 06:54:39;;;;;;;0.60;0.20;;;18.00;99.90;;;;;;5032425;28;21365;-74
2023/08/03 06:57:07;;;;;;;2.20;0.40;;;18.10;99.90;;;;;;5032819;28;20520;-75
2023/08/03 06:59:35;;;;;;;6.93;0.97;;;18.10;99.90;;;;;;5032910;28;20545;-74
2023/08/03 07:02:03;;;;;;;4.30;1.27;;;18.10;99.90;;;;;;5031891;28;21009;-75
2023/08/03 07:04:31;;;;;;;0.60;0.23;;;18.10;99.90;;;;;;5038887;28;20468;-74
2023/08/03 07:06:58;;;;;;;0.60;0.20;;;18.00;99.90;;;;;;5044761;28;20445;-73
2023/08/03 07:09:28;;;;;;;0.87;0.30;;;18.00;99.90;;;;;;5051602;28;20881;-75
2023/08/03 07:11:55;;;;;;;0.70;0.30;;;18.00;99.90;;;;;;5052035;28;20462;-75
2023/08/03 07:14:25;;;;;;;0.60;0.13;;;18.00;99.90;;;;;;5051801;28;20480;-75
2023/08/03 07:16:53;;;;;;;0.60;0.20;;;18.10;99.90;;;;;;5051379;28;20941;-74
2023/08/03 07:19:21;;;;;;;0.70;0.37;;;18.10;99.90;;;;;;5051824;28;20927;-73
2023/08/03 07:21:49;;;;;;;1.67;1.03;;;18.00;99.90;;;;;;5051116;28;20473;-73
2023/08/03 07:24:16;;;;;;;0.60;0.10;;;18.00;99.90;;;;;;5039100;28;20591;-74
2023/08/03 07:26:48;;;;;;;0.60;0.20;;;18.10;99.90;;;;;;5031078;28;20936;-75
2023/08/03 07:29:16;;;;;;;2.00;0.37;;;18.10;99.90;;;;;;5031703;28;20801;-73
2023/08/03 07:31:44;;;;;;;2.90;0.93;;;;;;;;;;5031077;28;20483;-73
2023/08/03 07:34:12;;;;;;;0.60;0.23;;;18.00;99.90;;;;;;5031287;28;20484;-74
2023/08/03 07:36:40;;;;;;;1.47;1.10;;;18.00;99.90;;;;;;5031032;28;21028;-77
2023/08/03 07:39:08;;;;;;;1.13;0.60;;;18.10;99.90;;;;;;5031545;28;20942;-75
2023/08/03 07:41:36;;;;;;;1.67;0.57;;;18.00;99.90;;;;;;5031362;28;20491;-73
2023/08/03 07:44:05;;;;;;;4.40;0.47;;;18.10;99.90;;;;;;5042460;28;20488;-74
2023/08/03 07:46:33;;;;;;;0.60;0.17;;;18.10;99.90;;;;;;5050800;28;20450;-74
2023/08/03 07:49:01;;;;;;;0.87;0.23;;;18.20;99.90;;;;;;5050760;28;20449;-74
2023/08/03 07:51:29;;;;;;;0.60;0.20;;;18.10;99.90;;;;;;5052178;28;20832;-75
2023/08/03 07:53:57;;;;;;;0.80;0.37;;;18.10;99.90;;;;;;5054196;28;20484;-74
2023/08/03 07:56:25;;;;;;;1.10;0.40;;;18.00;99.90;;;;;;5054642;28;20615;-75
2023/08/03 07:58:56;;;;;;;0.60;0.10;;;18.00;99.90;;;;;;5052438;28;20541;-73
2023/08/03 08:01:25;;;;;;;0.60;0.20;;;18.10;99.90;;;;;;5036043;28;20497;-74
2023/08/03 08:03:57;;;;;;;0.70;0.23;;;18.10;99.90;;;;;;5022123;28;20500;-74
2023/08/03 08:06:25;;;;;;;0.70;0.30;;;18.00;99.90;;;;;;5032183;28;20442;-75
2023/08/03 08:08:53;;;;;;;3.50;0.50;;;18.00;99.90;;;;;;5031455;28;20458;-73
2023/08/03 08:11:22;;;;;;;0.60;0.20;;;17.90;99.90;;;;;;5030979;28;20578;-73
2023/08/03 08:13:49;;;;;;;0.60;0.10;;;17.80;99.90;;;;;;5029776;28;20455;-73
2023/08/03 08:16:18;;;;;;;2.90;0.63;;;;;;;;;;5039000;28;20503;-75
2023/08/03 08:18:48;;;;;;;1.37;0.37;;;;;;;;;;5046225;28;20475;-73
2023/08/03 08:21:15;;;;;;;1.00;0.47;;;17.90;99.90;;;;;;5042367;28;20456;-74
2023/08/03 08:23:43;;;;;;;0.60;0.10;;;18.00;99.90;;;;;;5050569;28;20443;-75
2023/08/03 08:26:12;;;;;;;0.60;0.10;;;18.00;99.90;;;;;;5040355;28;20443;-73
2023/08/03 08:28:41;;;;;;;0.70;0.57;;;18.10;99.90;;;;;;5049850;28;20452;-73
2023/08/03 08:31:23;;;;;;;1.20;0.20;;;18.00;99.90;;;;;;5050271;28;20483;-74
2023/08/03 08:33:53;;;;;;;1.13;0.50;;;18.00;99.90;;;;;;5050642;28;20446;-75
2023/08/03 08:36:22;;;;;;;1.80;0.60;;;18.10;99.90;;;;;;5048138;28;20563;-73
2023/08/03 08:38:50;;;;;;;0.60;0.20;;;18.10;99.90;;;;;;5042130;28;20444;-73
2023/08/03 08:41:17;;;;;;;2.40;0.40;;;18.10;99.90;;;;;;5050181;28;20557;-74
2023/08/03 08:43:45;;;;;;;2.70;0.90;;;18.10;99.90;;;;;;5041408;28;20438;-73
2023/08/03 08:46:13;;;;;;;1.23;0.47;;;18.20;99.90;;;;;;5030192;28;20529;-74
2023/08/03 08:48:41;;;;;;;1.17;0.53;;;18.30;99.90;;;;;;5030454;28;20546;-73
2023/08/03 08:51:31;;;;;;;2.00;0.70;;;;;;;;;;5031018;28;20485;-75
2023/08/03 08:54:08;;;;;;;3.33;0.83;;;;;;;;;;5031098;28;20978;-75
2023/08/03 08:56:39;;;;;;;3.13;0.87;;;18.20;99.90;;;;;;5030426;28;20970;-75
2023/08/03 08:59:12;;;;;;;0.60;0.20;;;18.30;99.90;;;;;;5036694;28;21193;-75
2023/08/03 09:01:50;;;;;;;0.60;0.20;;;18.30;99.90;;;;;;5044342;28;20470;-76
2023/08/03 09:04:32;;;;;;;0.60;0.30;;;18.40;99.90;;;;;;5040543;28;20477;-74
2023/08/03 09:07:04;;;;;;;1.17;0.53;;;18.30;99.90;;;;;;5033996;28;20869;-73
2023/08/03 09:09:34;;;;;;;0.60;0.23;;;18.30;99.90;;;;;;5034149;28;20460;-75
2023/08/03 09:12:02;;;;;;;1.63;0.80;;;18.40;99.90;;;;;;5033699;28;20496;-74
2023/08/03 09:14:31;;;;;;;1.33;0.30;;;18.40;99.90;;;;;;5033671;28;20853;-74
2023/08/03 09:17:16;;;;;;;1.80;1.60;;;18.40;99.90;;;;;;5022187;28;20535;-75
2023/08/03 09:19:45;;;;;;;1.00;0.30;;;18.40;99.90;;;;;;5013311;28;20884;-75
2023/08/03 09:22:20;;;;;;;0.60;0.20;;;18.40;99.90;;;;;;5014333;28;20900;-74
2023/08/03 09:25:02;;;;;;;1.53;1.23;;;18.50;99.90;;;;;;5013660;28;20441;-74
2023/08/03 09:27:29;;;;;;;0.60;0.20;;;18.40;99.90;;;;;;5013647;28;20447;-74
2023/08/03 09:30:01;;;;;;;0.60;0.20;;;18.40;99.90;;;;;;5020392;28;20468;-74
2023/08/03 09:32:34;;;;;;;0.60;0.20;;;18.40;99.90;;;;;;5040162;28;20970;-73
2023/08/03 09:35:03;;;;;;;1.63;0.60;;;18.40;99.90;;;;;;5032329;28;20576;-73
2023/08/03 09:37:36;;;;;;;0.80;0.37;;;18.40;99.90;;;;;;5033853;28;20443;-73
2023/08/03 09:40:09;;;;;;;0.60;0.20;;;18.40;99.90;;;;;;5032457;28;20560;-73
2023/08/03 09:42:38;;;;;;;2.50;0.67;;;18.50;99.90;;;;;;5033020;28;20443;-74
2023/08/03 09:45:08;;;;;;;0.60;0.20;;;18.50;99.90;;;;;;5033439;28;21011;-73
2023/08/03 09:47:58;;;;;;;0.70;0.30;;;18.60;99.90;;;;;;5029772;28;20441;-73
2023/08/03 09:50:29;;;;;;;1.37;1.17;;;18.50;99.90;;;;;;5029863;28;20469;-73
2023/08/03 09:53:04;;;;;;;0.93;0.50;;;18.50;99.90;;;;;;5034718;28;20505;-74
2023/08/03 09:55:47;;;;;;;0.70;0.23;;;18.50;99.90;;;;;;5035227;28;20481;-72
2023/08/03 09:58:18;;;;;;;0.60;0.20;;;18.60;99.90;;;;;;5041084;28;20486;-72
2023/08/03 10:00:47;;;;;;;0.60;0.30;;;18.60;99.90;;;;;;5042451;28;20497;-73
2023/08/03 10:03:18;;;;;;;4.63;0.87;;;18.60;99.90;;;;;;5031395;28;21064;-74
2023/08/03 10:05:51;;;;;;;0.70;0.40;;;18.50;99.90;;;;;;5038478;28;20934;-73
2023/08/03 10:08:27;;;;;;;0.80;0.40;;;18.50;99.90;;;;;;5031640;28;20489;-74
2023/08/03 10:10:59;;;;;;;2.50;0.80;;;18.40;99.90;;;;;;5030377;28;20458;-74
2023/08/03 10:13:28;;;;;;;1.63;0.30;;;18.30;99.90;;;;;;5032655;28;20477;-74
2023/08/03 10:15:57;;;;;;;0.60;0.20;;;18.30;99.90;;;;;;5033020;28;20906;-73
2023/08/03 10:18:25;;;;;;;0.70;0.40;;;18.40;99.90;;;;;;5031822;28;20796;-73
2023/08/03 10:21:14;;;;;;;0.90;0.47;;;18.50;99.90;;;;;;5029802;28;20462;-74
2023/08/03 10:24:13;;;;;;;0.60;0.20;;;18.60;99.90;;;;;;5032104;28;20526;-73
2023/08/03 10:26:42;;;;;;;0.60;0.10;;;18.60;99.90;;;;;;5040094;28;20438;-75
2023/08/03 10:29:11;;;;;;;0.60;0.20;;;18.60;99.90;;;;;;5031654;28;20541;-73
2023/08/03 10:31:54;;;;;;;0.60;0.10;;;18.60;99.90;;;;;;5031022;28;20568;-75
2023/08/03 10:34:26;;;;;;;0.60;0.10;;;18.60;99.90;;;;;;5031261;28;20444;-73
2023/08/03 10:36:55;;;;;;;0.70;0.30;;;;;;;;;;5032078;28;20513;-74
2023/08/03 10:39:50;;;;;;;0.60;0.20;;;18.70;99.90;;;;;;5031867;28;20935;-74
2023/08/03 10:42:20;;;;;;;0.60;0.10;;;18.80;99.90;;;;;;5031163;28;20469;-73
2023/08/03 10:44:48;;;;;;;0.63;0.20;;;18.80;99.90;;;;;;5029416;28;20452;-74
2023/08/03 10:47:24;;;;;;;0.80;0.43;;;18.50;99.90;;;;;;5031705;28;20471;-74
2023/08/03 10:49:54;;;;;;;0.80;0.40;;;18.20;99.90;;;;;;5030357;28;20462;-75
2023/08/03 10:52:25;;;;;;;3.23;0.40;;;18.20;99.90;;;;;;5033389;28;20517;-74
2023/08/03 10:54:54;;;;;;;0.70;0.20;;;18.10;99.90;;;;;;5033999;28;21089;-74
2023/08/03 10:57:25;;;;;;;0.60;0.10;;;18.20;99.90;;;;;;5031973;28;20545;-74
2023/08/03 10:59:54;;;;;;;0.60;0.20;;;18.30;99.90;;;;;;5032272;28;20477;-75
2023/08/03 11:02:28;;;;;;;1.77;0.63;;;18.30;99.90;;;;;;5031305;28;20463;-75
2023/08/03 11:04:58;;;;;;;0.60;0.10;;;18.40;99.90;;;;;;5031808;28;20527;-76
2023/08/03 11:07:28;;;;;;;1.83;0.43;;;18.50;99.90;;;;;;5029035;28;20445;-74
2023/08/03 11:09:58;;;;;;;0.60;0.17;;;18.60;99.90;;;;;;5031323;28;20455;-75
2023/08/03 11:12:27;;;;;;;0.70;0.37;;;18.70;99.90;;;;;;5030735;28;20995;-74
2023/08/03 11:14:57;;;;;;;2.03;0.97;;;18.70;99.90;;;;;;5031008;28;20469;-74
2023/08/03 11:17:26;;;;;;;1.37;0.50;;;18.70;99.90;;;;;;5029068;28;20491;-73
2023/08/03 11:19:55;;;;;;;0.60;0.10;;;18.60;99.90;;;;;;5031285;28;20503;-74
2023/08/03 11:22:24;;;;;;;0.70;0.20;;;18.60;99.90;;;;;;5028466;28;20467;-74
2023/08/03 11:24:55;;;;;;;0.60;0.10;;;18.50;99.90;;;;;;5030477;28;20780;-74
2023/08/03 11:27:24;;;;;;;0.60;0.20;;;18.50;99.90;;;;;;5031180;28;20435;-73
2023/08/03 11:29:53;;;;;;;0.83;0.20;;;18.20;99.90;;;;;;5031236;28;20457;-74
2023/08/03 11:32:25;;;;;;;0.70;0.20;;;18.20;99.90;;;;;;5031757;28;21026;-75
2023/08/03 11:34:58;;;;;;;0.60;0.20;;;18.20;99.90;;;;;;5030965;28;20449;-74
2023/08/03 11:37:29;;;;;;;0.70;0.30;;;18.20;99.90;;;;;;5031311;28;20532;-74
2023/08/03 11:39:57;;;;;;;0.60;0.20;;;18.20;99.90;;;;;;5030770;28;20513;-76
2023/08/03 11:42:27;;;;;;;0.60;0.10;;;18.20;99.90;;;;;;5028084;28;20546;-76
2023/08/03 11:44:55;;;;;;;0.60;0.10;;;18.20;99.90;;;;;;5030356;28;20446;-75
2023/08/03 11:47:24;;;;;;;0.60;0.10;;;18.30;99.90;;;;;;5030335;28;20932;-76
2023/08/03 11:49:52;;;;;;;1.33;0.50;;;18.30;99.90;;;;;;5030987;28;21023;-74
2023/08/03 11:52:21;;;;;;;1.03;0.73;;;18.20;99.90;;;;;;5031038;28;20489;-75
2023/08/03 11:54:50;;;;;;;1.70;0.60;;;18.20;99.90;;;;;;5029405;28;20438;-75
2023/08/03 12:00:11;;;;;;;0.87;0.30;;;18.40;99.90;;;;;;5029978;28;20522;-75
2023/08/03 12:02:40;;;;;;;0.60;0.17;;;18.40;99.90;;;;;;5028704;28;20449;-76
2023/08/03 12:05:09;;;;;;;0.60;0.30;;;18.40;99.90;;;;;;5030756;28;20442;-75
2023/08/03 12:07:44;;;;;;;1.03;0.40;;;18.40;99.90;;;;;;5028791;28;20495;-75
2023/08/03 12:10:32;;;;;;;0.60;0.20;;;18.50;99.90;;;;;;5029989;28;20461;-76
2023/08/03 12:13:01;;;;;;;0.60;0.20;;;18.60;99.90;;;;;;5027823;28;20473;-74
2023/08/03 12:15:31;;;;;;;0.70;0.33;;;18.60;99.90;;;;;;5019520;28;20544;-74
2023/08/03 12:17:59;;;;;;;0.70;0.30;;;18.70;99.90;;;;;;5030533;28;20556;-75
2023/08/03 12:20:26;;;;;;;0.60;0.20;;;18.80;99.90;;;;;;5030990;28;20473;-75
2023/08/03 12:22:55;;;;;;;0.60;0.20;;;18.90;99.90;;;;;;5030536;28;20461;-76
2023/08/03 12:25:29;;;;;;;0.60;0.20;;;19.00;99.90;;;;;;5029017;28;20849;-76
2023/08/03 12:28:00;;;;;;;0.60;0.20;;;19.00;99.90;;;;;;5029972;28;20447;-74
2023/08/03 12:30:28;;;;;;;1.30;0.30;;;19.10;99.90;;;;;;5026708;28;20477;-75
2023/08/03 12:32:58;;;;;;;0.70;0.40;;;19.10;99.90;;;;;;5037814;28;20534;-76
2023/08/03 12:35:27;;;;;;;0.60;0.20;;;19.20;99.90;;;;;;5029651;28;20947;-75
2023/08/03 12:37:55;;;;;;;0.73;0.20;;;19.30;99.90;;;;;;5034628;28;20487;-75
2023/08/03 12:40:26;;;;;;;1.97;0.50;;;19.50;99.90;;;;;;5033618;28;20470;-75
2023/08/03 12:42:54;;;;;;;0.60;0.20;;;;;;;;;;5035691;28;20535;-75
2023/08/03 12:45:23;;;;;;;0.83;0.20;;;19.60;99.90;;;;;;5054282;28;20456;-75
2023/08/03 12:47:54;;;;;;;0.70;0.23;;;19.60;99.90;;;;;;5055661;28;20437;-76
2023/08/03 12:50:24;;;;;;;0.80;0.30;;;;;;;;;;5046138;28;22131;-75
2023/08/03 12:52:53;;;;;;;0.70;0.43;;;;;;;;;;5032214;28;20524;-73
2023/08/03 12:55:21;;;;;;;0.70;0.30;;;19.40;99.90;;;;;;5036303;28;20435;-75
2023/08/03 12:57:50;;;;;;;1.00;0.30;;;;;;;;;;5034521;28;20856;-75
2023/08/03 13:00:18;;;;;;;0.80;0.30;;;19.60;99.90;;;;;;5028377;28;20949;-75
2023/08/03 13:02:46;;;;;;;0.70;0.20;;;19.50;99.90;;;;;;5034262;28;20450;-76
2023/08/03 13:05:22;;;;;;;0.60;0.20;;;;;;;;;;5038209;28;20485;-78
2023/08/03 13:07:58;;;;;;;0.70;0.30;;;;;;;;;;5041116;28;20447;-77
2023/08/03 13:10:51;;;;;;;0.90;0.30;;;;;;;;;;5038061;28;20470;-78
2023/08/03 13:13:22;;;;;;;2.20;0.60;;;;;;;;;;5037688;28;20462;-76
2023/08/03 13:15:50;;;;;;;0.70;0.40;;;19.70;99.90;;;;;;5034272;28;20454;-76
2023/08/03 13:18:23;;;;;;;1.37;1.27;;;19.70;99.90;;;;;;5030000;28;20491;-76
2023/08/03 13:24:48;;;;;;;0.60;0.10;;;19.70;99.90;;;;;;5022728;28;20453;-77
2023/08/03 13:27:27;;;;;;;0.80;0.30;;;;;;;;;;5024664;28;20444;-77
2023/08/03 13:30:09;;;;;;;0.70;0.20;;;;;;;;;;5046556;28;20457;-78
2023/08/03 13:33:01;;;;;;;0.70;0.30;;;;;;;;;;5052485;28;20775;-77
2023/08/03 13:35:37;;;;;;;2.50;0.40;;;;;;;;;;5057931;28;20457;-77
2023/08/03 13:38:36;;;;;;;0.60;0.20;;;;;;;;;;5053003;28;20473;-77
2023/08/03 13:41:36;;;;;;;0.60;0.20;;;;;;;;;;5057222;28;20473;-77
2023/08/03 13:44:55;;;;;;;0.60;0.20;;;;;;;;;;5040038;28;20439;-78
2023/08/03 13:50:56;;;;;;;1.10;0.50;;;;;;;;;;5043066;28;20847;-77
2023/08/03 13:54:04;;;;;;;0.77;0.30;;;;;;;;;;5044563;28;20447;-77
2023/08/03 13:57:09;;;;;;;0.80;0.40;;;;;;;;;;4987721;28;20449;-78
2023/08/03 14:00:09;;;;;;;0.60;0.20;;;;;;;;;;4982735;28;20464;-79
2023/08/03 14:06:28;;;;;;;0.60;0.20;;;;;;;;;;5040939;28;20463;-78
2023/08/03 14:09:11;;;;;;;0.70;0.60;;;;;;;;;;5016724;28;21007;-78
2023/08/03 14:12:03;;;;;;;0.60;0.30;;;;;;;;;;5038577;28;20467;-77
2023/08/03 14:15:17;;;;;;;0.87;0.40;;;;;;;;;;5052159;28;20451;-78
2023/08/03 14:21:16;;;;;;;0.70;0.30;;;;;;;;;;4991654;28;20480;-78
2023/08/03 14:24:28;;;;;;;0.60;0.20;;;;;;;;;;5037267;28;20454;-78
2023/08/03 14:27:31;;;;;;;0.60;0.20;;;;;;;;;;5044217;28;20443;-78
2023/08/03 14:33:53;;;;;;;0.70;0.30;;;;;;;;;;5092609;28;20508;-78
2023/08/03 14:36:49;;;;;;;1.73;0.80;;;;;;;;;;5072757;28;20466;-76
2023/08/03 14:45:05;;;;;;;1.27;0.60;;;20.50;99.90;;;;;;5026040;28;20543;-73
2023/08/03 14:47:33;;;;;;;0.70;0.20;;;20.50;99.90;;;;;;5027941;28;20486;-73
2023/08/03 14:50:04;;;;;;;0.70;0.63;;;20.50;99.90;;;;;;5028125;28;20445;-73
2023/08/03 14:52:35;;;;;;;0.60;0.30;;;20.60;99.90;;;;;;5027744;28;20567;-71
2023/08/03 14:55:05;;;;;;;2.20;0.40;;;20.60;99.90;;;;;;5027527;28;20985;-74
2023/08/03 14:57:33;;;;;;;0.93;0.23;;;20.70;99.90;;;;;;5028057;28;20453;-74
2023/08/03 15:00:01;;;;;;;1.00;0.30;;;20.70;99.90;;;;;;5027833;28;20515;-73
2023/08/03 15:02:30;;;;;;;0.60;0.10;;;20.70;99.90;;;;;;5027173;28;20489;-74
2023/08/03 15:04:58;;;;;;;0.90;0.43;;;20.70;99.90;;;;;;5014168;28;20532;-74
2023/08/03 15:07:28;;;;;;;0.60;0.20;;;20.70;99.90;;;;;;5008160;28;20857;-73
2023/08/03 15:09:56;;;;;;;0.60;0.20;;;20.70;99.90;;;;;;5008138;28;20942;-73
2023/08/03 15:12:24;;;;;;;6.77;0.53;;;20.70;99.90;;;;;;5007620;28;20532;-74
2023/08/03 15:14:52;;;;;;;1.00;0.40;;;20.70;99.90;;;;;;5007540;28;20484;-73
2023/08/03 15:17:20;;;;;;;0.60;0.10;;;20.90;99.90;;;;;;5007819;28;20952;-73
2023/08/03 15:19:53;;;;;;;0.70;0.20;;;21.10;99.90;;;;;;5026885;28;20444;-73
2023/08/03 15:22:25;;;;;;;0.60;0.20;;;21.40;99.90;;;;;;5027247;28;20472;-74
2023/08/03 15:24:55;;;;;;;0.70;0.20;;;21.50;99.90;;;;;;5027661;28;20527;-74
2023/08/03 15:27:25;;;;;;;0.80;0.40;;;21.50;99.90;;;;;;5027506;28;20444;-74
2023/08/03 15:29:54;;;;;;;0.60;0.20;;;21.40;99.90;;;;;;5027256;28;20445;-73
2023/08/03 15:32:24;;;;;;;0.60;0.30;;;21.10;99.90;;;;;;5026749;28;20499;-73
2023/08/03 15:34:55;;;;;;;0.60;0.20;;;21.00;99.90;;;;;;5014504;28;20894;-73
2023/08/03 15:37:24;;;;;;;2.03;1.20;;;20.80;99.90;;;;;;5007737;28;20978;-73
2023/08/03 15:39:56;;;;;;;0.87;0.20;;;20.80;99.90;;;;;;5007713;28;20866;-73
2023/08/03 15:42:28;;;;;;;1.43;0.60;;;20.80;99.90;;;;;;5007289;28;20997;-73
2023/08/03 15:45:01;;;;;;;0.70;0.27;;;;;;;;;;5013202;28;20449;-73
2023/08/03 15:47:35;;;;;;;8.37;0.50;;;20.60;99.90;;;;;;5009300;28;20548;-73
2023/08/03 15:50:07;;;;;;;0.60;0.20;;;20.60;99.90;;;;;;5012958;28;20521;-72
2023/08/03 15:52:42;;;;;;;0.70;0.47;;;20.40;99.90;;;;;;5013597;28;20464;-73
2023/08/03 15:55:36;;;;;;;2.10;0.60;;;20.20;99.90;;;;;;5012794;28;20535;-72
2023/08/03 15:58:07;;;;;;;2.60;0.53;;;20.20;99.90;;;;;;5013627;28;20460;-72
2023/08/03 16:00:36;;;;;;;0.70;0.20;;;;;;;;;;5013120;28;20437;-71
2023/08/03 16:03:04;;;;;;;1.63;0.77;;;20.20;99.90;;;;;;5013514;28;20532;-73
2023/08/03 16:05:35;;;;;;;0.90;0.43;;;20.20;99.90;;;;;;5013156;28;20487;-70
2023/08/03 16:08:03;;;;;;;0.80;0.37;;;20.10;99.90;;;;;;5012979;28;20444;-73
2023/08/03 16:10:35;;;;;;;0.60;0.20;;;20.10;99.90;;;;;;5013371;28;20466;-72
2023/08/03 16:13:05;;;;;;;0.60;0.30;;;20.00;99.90;;;;;;5013453;28;20522;-72
2023/08/03 16:15:33;;;;;;;0.70;0.20;;;19.90;99.90;;;;;;5013346;28;20543;-74
2023/08/03 16:18:03;;;;;;;0.60;0.30;;;20.00;99.90;;;;;;5014137;28;20461;-74
2023/08/03 16:20:31;;;;;;;0.60;0.20;;;20.00;99.90;;;;;;5012126;28;20503;-74
2023/08/03 16:22:59;;;;;;;0.60;0.10;;;20.10;99.90;;;;;;5000770;28;20898;-73
2023/08/03 16:25:27;;;;;;;0.60;0.20;;;20.20;99.90;;;;;;5014019;28;20467;-75
2023/08/03 16:27:56;;;;;;;0.60;0.20;;;20.20;99.90;;;;;;5005925;28;20444;-73
2023/08/03 16:30:24;;;;;;;0.60;0.20;;;20.20;99.90;;;;;;5012952;28;20460;-73
2023/08/03 16:32:52;;;;;;;0.60;0.20;;;20.20;99.90;;;;;;5012991;28;20977;-72
2023/08/03 16:35:20;;;;;;;0.60;0.20;;;20.10;99.90;;;;;;5014284;28;20836;-73
2023/08/03 16:37:48;;;;;;;0.60;0.20;;;20.10;99.90;;;;;;5012939;28;20445;-74
2023/08/03 16:40:16;;;;;;;0.60;0.33;;;20.10;99.90;;;;;;5012703;28;20526;-74
2023/08/03 16:42:44;;;;;;;0.60;0.10;;;20.10;99.90;;;;;;5012371;28;20495;-72
2023/08/03 16:45:13;;;;;;;0.60;0.13;;;20.20;99.90;;;;;;5012668;28;20449;-75
2023/08/03 16:47:41;;;;;;;1.33;0.73;;;20.20;99.90;;;;;;5012644;28;20451;-73
2023/08/03 16:50:10;;;;;;;0.60;0.20;;;20.20;99.90;;;;;;5012600;28;20931;-73
2023/08/03 16:52:38;;;;;;;0.90;0.33;;;;;;;;;;5012539;28;20468;-73
2023/08/03 16:55:07;;;;;;;1.43;0.40;;;20.10;99.90;;;;;;5011441;28;20449;-72
2023/08/03 16:57:35;;;;;;;0.80;0.50;;;20.10;99.90;;;;;;5012777;28;20671;-74
2023/08/03 17:00:03;;;;;;;0.60;0.20;;;20.10;99.90;;;;;;5012618;28;20484;-73
2023/08/03 17:02:32;;;;;;;0.60;0.20;;;20.10;99.90;;;;;;5012310;28;20999;-72
2023/08/03 17:05:00;;;;;;;0.60;0.10;;;20.10;99.90;;;;;;5012307;28;20830;-72
2023/08/03 17:07:28;;;;;;;0.70;0.40;;;20.00;99.90;;;;;;5012511;28;20868;-73
2023/08/03 17:09:56;;;;;;;0.60;0.30;;;20.10;99.90;;;;;;5012734;28;20626;-73
2023/08/03 17:12:24;;;;;;;0.60;0.23;;;20.00;99.90;;;;;;5012545;28;20456;-71
2023/08/03 17:14:52;;;;;;;0.60;0.27;;;20.00;99.90;;;;;;5012547;28;20536;-72
2023/08/03 17:17:20;;;;;;;13.63;0.83;;;;;;;;;;5012370;28;20449;-74
2023/08/03 17:19:49;;;;;;;0.60;0.20;;;20.00;99.90;;;;;;5012007;28;20444;-73
2023/08/03 17:22:18;;;;;;;0.60;0.20;;;20.00;99.90;;;;;;5010937;28;20811;-72
2023/08/03 17:24:46;;;;;;;0.60;0.10;;;20.00;99.90;;;;;;5011497;28;20870;-73
2023/08/03 17:27:14;;;;;;;0.90;0.30;;;20.10;99.90;;;;;;5011495;28;20452;-72
2023/08/03 17:29:42;;;;;;;1.20;0.37;;;20.00;99.90;;;;;;5011306;28;20459;-73
2023/08/03 17:32:11;;;;;;;0.60;0.10;;;20.00;99.90;;;;;;5011513;28;20448;-74
2023/08/03 17:34:39;;;;;;;0.60;0.13;;;20.00;99.90;;;;;;5004637;28;20487;-73
2023/08/03 17:37:08;;;;;;;0.60;0.10;;;20.00;99.90;;;;;;4999659;28;20466;-73
2023/08/03 17:39:36;;;;;;;0.60;0.20;;;20.10;99.90;;;;;;5011805;28;20471;-73
2023/08/03 17:42:04;;;;;;;0.60;0.10;;;20.10;99.90;;;;;;4997752;28;21016;-72
2023/08/03 17:44:32;;;;;;;1.77;1.67;;;20.10;99.90;;;;;;5008211;28;20586;-72
2023/08/03 17:47:00;;;;;;;0.80;0.57;;;20.10;99.90;;;;;;5013489;28;20468;-72
2023/08/03 17:49:28;;;;;;;0.93;0.47;;;20.10;99.90;;;;;;5012771;28;20454;-73